Time;durP1;ratioP1;P1;durP2;ratioP2;P2;SDS_P1;SDS_P2;PMS_P1;PMS_P2;Temp;Humidity;BMP_temperature;BMP_pressure;BME280_temperature;BME280_humidity;BME280_pressure;Samples;Min_cycle;Max_cycle;Signal;HPM_P1;HPM_P2
2023/03/24 00:01:00;;;;;;;51.70;7.90;;;;;;;;;;4992442;28;20621;-60
2023/03/24 00:03:35;;;;;;;47.33;6.95;;;;;;;;;;4990317;28;20058;-60
2023/03/24 00:06:03;;;;;;;63.13;7.72;;;;;;;;;;4992570;28;20589;-59
2023/03/24 00:08:37;;;;;;;43.50;6.80;;;;;;;;;;4987713;28;20057;-60
2023/03/24 00:11:13;;;;;;;60.20;7.72;;;;;;;;;;4992847;28;20189;-56
2023/03/24 00:13:48;;;;;;;58.05;7.38;;;;;;;;;;4991696;28;20145;-58
2023/03/24 00:16:18;;;;;;;53.67;6.95;;;;;;;;;;4990271;28;20050;-60
2023/03/24 00:18:59;;;;;;;57.60;8.75;;;;;;;;;;4990447;28;20502;-59
2023/03/24 00:21:33;;;;;;;60.17;7.22;;;;;;;;;;4993782;28;20060;-61
2023/03/24 00:24:07;;;;;;;59.55;7.55;;;;;;;;;;4989118;28;20454;-60
2023/03/24 00:26:36;;;;;;;;;;;;;;;;;;4994420;28;20054;-59
2023/03/24 00:29:04;;;;;;;64.55;7.93;;;;;;;;;;4986296;28;19997;-67
2023/03/24 00:31:38;;;;;;;54.55;6.65;;;;;;;;;;4993178;28;20054;-68
2023/03/24 00:34:07;;;;;;;62.75;7.32;;;;;;;;;;4988119;28;20523;-67
2023/03/24 00:36:41;;;;;;;58.08;7.47;;;;;;;;;;4992364;28;20141;-68
2023/03/24 02:59:27;;;;;;;109.45;13.18;;;;;;;;;;4966491;28;20054;-60
2023/03/24 03:02:14;;;;;;;94.38;12.43;;;;;;;;;;4982941;28;20094;-60
2023/03/24 03:04:53;;;;;;;109.05;12.85;;;;;;;;;;4977397;28;20054;-60
2023/03/24 03:07:23;;;;;;;119.68;13.32;;;;;;;;;;4982736;28;20058;-59
2023/03/24 03:09:59;;;;;;;112.13;14.65;;;;;;;;;;4986733;28;20138;-60
2023/03/24 03:12:28;;;;;;;98.03;12.45;;;;;;;;;;4981318;28;20053;-60
2023/03/24 03:14:58;;;;;;;101.03;13.35;;;;;;;;;;4972442;28;20080;-53
2023/03/24 03:17:34;;;;;;;98.50;13.82;;;;;;;;;;4979653;28;20068;-60
2023/03/24 03:20:18;;;;;;;97.90;13.35;;;;;;;;;;4983519;28;20130;-60
2023/03/24 03:22:48;;;;;;;100.93;12.32;;;;;;;;;;4983359;28;20104;-59
2023/03/24 03:25:25;;;;;;;113.95;13.82;;;;;;;;;;4980891;28;20045;-60
2023/03/24 03:27:55;;;;;;;107.43;14.38;;;;;;;;;;4985114;28;20062;-60
2023/03/24 03:30:36;;;;;;;108.93;14.68;;;;;;;;;;4987327;28;20481;-59
2023/03/24 03:33:16;;;;;;;113.10;13.77;;;;;;;;;;4976195;28;20129;-60
2023/03/24 03:35:56;;;;;;;108.95;15.48;;;;;;;;;;4973384;28;20141;-56
2023/03/24 03:38:26;;;;;;;107.47;14.40;;;;;;;;;;4983876;28;20046;-57
2023/03/24 03:41:02;;;;;;;118.30;16.15;;;;;;;;;;4978603;28;20109;-57
2023/03/24 03:43:30;;;;;;;113.03;15.38;;;;;;;;;;4984134;28;20642;-66
2023/03/24 03:46:05;;;;;;;94.45;13.73;;;;;;;;;;4980135;28;20141;-56
2023/03/24 03:48:33;;;;;;;111.50;15.75;;;;;;;;;;4985678;28;20450;-67
2023/03/24 03:51:08;;;;;;;95.25;13.93;;;;;;;;;;4985581;28;20050;-67
2023/03/24 03:53:46;;;;;;;101.40;13.90;;;;;;;;;;4974122;28;20055;-67
2023/03/24 03:56:21;;;;;;;90.85;14.50;;;;;;;;;;4979087;28;20086;-67
2023/03/24 03:59:02;;;;;;;116.38;15.85;;;;;;;;;;4987192;28;20058;-67
2023/03/24 04:01:33;;;;;;;109.10;14.48;;;;;;;;;;4986838;28;20054;-66
2023/03/24 04:04:25;;;;;;;93.00;15.10;;;;;;;;;;4985513;28;20042;-54
2023/03/24 04:06:58;;;;;;;83.50;15.00;;;;;;;;;;4985315;28;20477;-56
2023/03/24 04:09:39;;;;;;;90.97;13.88;;;;;;;;;;4983292;28;20062;-58
2023/03/24 04:12:16;;;;;;;105.90;14.65;;;;;;;;;;4986576;28;20068;-63
2023/03/24 04:15:13;;;;;;;97.15;13.75;;;;;;;;;;4985076;28;20058;-53
2023/03/24 04:18:11;;;;;;;91.10;13.52;;;;;;;;;;4980889;28;20062;-56
2023/03/24 04:20:57;;;;;;;105.03;15.02;;;;;;;;;;4985313;28;20169;-56
2023/03/24 04:23:49;;;;;;;96.47;13.65;;;;;;;;;;4984477;28;20137;-52
2023/03/24 04:26:25;;;;;;;79.00;14.23;;;;;;;;;;4985290;28;20188;-50
2023/03/24 04:29:17;;;;;;;82.20;14.25;;;;;;;;;;4981129;28;20232;-52
2023/03/24 04:31:48;;;;;;;93.72;16.10;;;;;;;;;;4985492;28;20410;-67
2023/03/24 04:34:24;;;;;;;91.10;15.35;;;;;;;;;;4985834;28;20418;-67
2023/03/24 04:36:54;;;;;;;84.45;15.93;;;;;;;;;;4986449;28;20474;-67
2023/03/24 04:39:29;;;;;;;104.22;17.08;;;;;;;;;;4987536;28;20421;-67
2023/03/24 04:41:58;;;;;;;110.97;16.48;;;;;;;;;;4987726;28;20050;-60
2023/03/24 04:44:32;;;;;;;94.88;15.35;;;;;;;;;;4988163;28;20502;-52
2023/03/24 04:46:59;;;;;;;;;;;;;;;;;;4985782;28;20113;-58
2023/03/24 04:49:36;;;;;;;96.85;14.95;;;;;;;;;;4986361;28;19930;-58
2023/03/24 04:52:05;;;;;;;86.35;15.80;;;;;;;;;;4984613;28;20078;-59
2023/03/24 04:54:32;;;;;;;101.43;16.58;;;;;;;;;;4987608;28;20646;-57
2023/03/24 04:57:13;;;;;;;89.28;13.98;;;;;;;;;;4985215;28;20062;-57
2023/03/24 04:59:47;;;;;;;104.22;15.77;;;;;;;;;;4987211;28;20062;-60
2023/03/24 05:02:20;;;;;;;90.78;14.38;;;;;;;;;;4989589;28;20054;-59
2023/03/24 05:04:47;;;;;;;92.18;14.07;;;;;;;;;;4991587;28;20062;-59
2023/03/24 05:07:16;;;;;;;86.03;14.05;;;;;;;;;;4989999;28;20443;-56
2023/03/24 05:09:51;;;;;;;110.78;15.90;;;;;;;;;;4992559;28;20050;-60
2023/03/24 05:12:18;;;;;;;91.35;14.18;;;;;;;;;;4994267;28;20057;-59
2023/03/24 05:14:52;;;;;;;82.65;14.85;;;;;;;;;;4986613;28;20058;-60
2023/03/24 05:17:19;;;;;;;94.22;13.52;;;;;;;;;;4971471;28;20092;-59
2023/03/24 05:19:46;;;;;;;108.25;13.93;;;;;;;;;;4987168;28;20146;-60
2023/03/24 05:22:20;;;;;;;87.97;13.43;;;;;;;;;;4984391;28;20068;-60
2023/03/24 05:24:47;;;;;;;81.63;12.88;;;;;;;;;;4990412;28;20092;-58
2023/03/24 05:27:21;;;;;;;87.93;11.98;;;;;;;;;;4986658;28;20141;-64
2023/03/24 05:29:48;;;;;;;77.43;11.48;;;;;;;;;;4988324;28;20138;-60
2023/03/24 05:32:15;;;;;;;85.78;13.55;;;;;;;;;;4984042;28;20058;-58
2023/03/24 05:34:50;;;;;;;102.40;13.85;;;;;;;;;;4988035;28;20517;-59
2023/03/24 05:37:17;;;;;;;130.30;15.32;;;;;;;;;;4984948;28;20082;-59
2023/03/24 05:39:58;;;;;;;126.03;16.48;;;;;;;;;;4987321;28;20082;-60
2023/03/24 05:42:32;;;;;;;108.20;13.90;;;;;;;;;;4984960;28;20064;-58
2023/03/24 05:45:06;;;;;;;93.68;13.35;;;;;;;;;;4987732;28;20626;-54
2023/03/24 05:47:34;;;;;;;105.95;14.32;;;;;;;;;;4987000;28;20065;-64
2023/03/24 05:50:01;;;;;;;91.25;13.82;;;;;;;;;;4990515;28;20413;-63
2023/03/24 05:52:35;;;;;;;107.72;14.57;;;;;;;;;;4972341;28;20525;-63
2023/03/24 05:55:03;;;;;;;117.00;14.88;;;;;;;;;;4985282;28;20188;-63
2023/03/24 05:57:43;;;;;;;93.68;14.70;;;;;;;;;;4982094;28;20068;-60
2023/03/24 06:00:15;;;;;;;101.60;13.90;;;;;;;;;;4986696;28;20061;-60
2023/03/24 06:02:49;;;;;;;83.13;13.10;;;;;;;;;;4982706;28;20062;-58
2023/03/24 06:05:17;;;;;;;91.43;13.13;;;;;;;;;;4981202;28;20490;-59
2023/03/24 06:07:44;;;;;;;82.82;13.38;;;;;;;;;;4980610;28;20070;-59
2023/03/24 06:10:18;;;;;;;88.07;13.68;;;;;;;;;;4989001;28;20429;-59
2023/03/24 06:12:45;;;;;;;73.50;12.73;;;;;;;;;;4982889;28;20092;-60
2023/03/24 06:15:19;;;;;;;70.03;11.85;;;;;;;;;;4985784;28;21696;-63
2023/03/24 06:17:46;;;;;;;85.68;13.05;;;;;;;;;;4981878;28;20425;-63
2023/03/24 06:20:14;;;;;;;78.10;11.20;;;;;;;;;;4986924;28;20486;-63
2023/03/24 06:22:49;;;;;;;80.80;12.45;;;;;;;;;;4982118;28;20058;-64
2023/03/24 06:25:19;;;;;;;81.32;11.25;;;;;;;;;;4986174;28;21457;-59
2023/03/24 06:27:52;;;;;;;84.72;12.15;;;;;;;;;;4982863;28;20137;-63
2023/03/24 06:30:19;;;;;;;82.13;13.18;;;;;;;;;;4983162;28;20068;-63
2023/03/24 06:32:46;;;;;;;76.43;12.07;;;;;;;;;;4989197;28;20117;-63
2023/03/24 06:35:20;;;;;;;69.90;11.23;;;;;;;;;;4986514;28;20055;-63
2023/03/24 06:37:47;;;;;;;78.63;11.90;;;;;;;;;;4985556;28;20056;-64
2023/03/24 06:40:22;;;;;;;71.88;11.95;;;;;;;;;;4977343;28;20403;-63
2023/03/24 06:42:49;;;;;;;;;;;;;;;;;;4978875;28;20062;-55
2023/03/24 06:45:16;;;;;;;47.83;9.02;;;;;;;;;;4986423;28;20289;-63
2023/03/24 06:47:56;;;;;;;68.05;10.98;;;;;;;;;;4988191;28;20237;-61
2023/03/24 06:50:31;;;;;;;63.45;10.60;;;;;;;;;;4985078;28;20054;-61
2023/03/24 06:53:07;;;;;;;72.55;11.15;;;;;;;;;;4989511;28;20062;-61
2023/03/24 06:55:34;;;;;;;74.90;12.63;;;;;;;;;;4986176;28;20508;-61
2023/03/24 06:58:02;;;;;;;56.97;11.18;;;;;;;;;;4979338;28;20053;-60
2023/03/24 07:00:43;;;;;;;69.32;11.27;;;;;;;;;;4990186;28;20161;-60
2023/03/24 07:03:12;;;;;;;69.75;12.75;;;;;;;;;;4989110;28;20529;-56
2023/03/24 07:05:46;;;;;;;64.05;12.05;;;;;;;;;;4989627;28;20057;-58
2023/03/24 07:08:13;;;;;;;54.47;11.10;;;;;;;;;;4969813;28;20645;-55
2023/03/24 07:10:43;;;;;;;76.95;13.85;;;;;;;;;;4986135;28;20520;-54
2023/03/24 07:13:17;;;;;;;54.90;11.68;;;;;;;;;;4985671;28;20085;-61
2023/03/24 07:15:44;;;;;;;61.03;13.32;;;;;;;;;;4986043;28;20052;-60
2023/03/24 07:18:12;;;;;;;71.18;15.82;;;;;;;;;;4990830;28;20050;-60
2023/03/24 07:20:46;;;;;;;55.97;14.30;;;;;;;;;;4990237;28;20054;-61
2023/03/24 07:23:13;;;;;;;62.38;14.02;;;;;;;;;;4983692;28;20058;-60
2023/03/24 07:25:47;;;;;;;51.80;15.23;;;;;;;;;;4986587;28;20506;-60
2023/03/24 07:28:14;;;;;;;57.22;15.30;;;;;;;;;;4988351;28;20133;-60
2023/03/24 07:30:41;;;;;;;44.67;13.80;;;;;;;;;;4988726;28;20054;-54
2023/03/24 07:33:15;;;;;;;52.58;13.52;;;;;;;;;;4988284;28;20494;-54
2023/03/24 07:35:42;;;;;;;46.10;14.32;;;;;;;;;;4994597;28;21315;-52
2023/03/24 07:38:16;;;;;;;46.70;11.93;;;;;;;;;;4988915;28;20082;-55
2023/03/24 07:40:43;;;;;;;56.15;12.65;;;;;;;;;;4987528;28;20057;-59
2023/03/24 07:43:11;;;;;;;41.35;12.10;;;;;;;;;;4986794;28;20144;-61
2023/03/24 07:45:45;;;;;;;36.10;9.75;;;;;;;;;;4990095;28;20058;-61
2023/03/24 07:48:13;;;;;;;31.50;9.23;;;;;;;;;;4992829;28;20618;-60
2023/03/24 07:50:47;;;;;;;22.52;7.55;;;;;;;;;;4988718;28;20137;-60
2023/03/24 07:53:18;;;;;;;27.10;7.30;;;;;;;;;;4986209;28;20142;-60
2023/03/24 07:55:52;;;;;;;21.73;6.35;;;;;;;;;;4983802;28;20537;-61
2023/03/24 07:58:32;;;;;;;19.88;5.25;;;;;;;;;;4988205;28;20077;-63
2023/03/24 08:01:09;;;;;;;16.42;5.10;;;;;;;;;;4969343;28;20058;-63
2023/03/24 08:03:36;;;;;;;25.42;6.03;;;;;;;;;;4988657;28;20835;-63
2023/03/24 08:06:04;;;;;;;19.13;5.10;;;;;;;;;;4990693;28;20591;-63
2023/03/24 08:08:38;;;;;;;20.70;4.38;;;;;;;;;;4992159;28;20133;-62
2023/03/24 08:11:05;;;;;;;14.52;3.95;;;;;;;;;;4990755;28;20145;-68
2023/03/24 08:13:39;;;;;;;22.45;4.28;;;;;;;;;;4993957;28;20060;-58
2023/03/24 08:16:07;;;;;;;13.82;3.25;;;;;;;;;;4991557;28;20053;-59
2023/03/24 08:18:34;;;;;;;;;;;;;;;;;;4992138;28;20078;-60
2023/03/24 08:21:08;;;;;;;7.88;2.65;;;;;;;;;;4974730;28;20297;-60
2023/03/24 08:23:35;;;;;;;9.23;2.80;;;;;;;;;;4989860;28;20084;-60
2023/03/24 08:26:12;;;;;;;7.97;2.28;;;;;;;;;;4993760;28;20046;-59
2023/03/24 08:28:40;;;;;;;4.75;2.15;;;;;;;;;;4991387;28;20101;-63
2023/03/24 08:31:15;;;;;;;8.75;2.35;;;;;;;;;;4988288;28;20065;-63
2023/03/24 08:33:42;;;;;;;9.60;2.33;;;;;;;;;;4989843;28;20270;-63
2023/03/24 08:36:09;;;;;;;5.53;2.42;;;;;;;;;;4993475;28;20058;-62
2023/03/24 08:38:43;;;;;;;5.82;1.83;;;;;;;;;;4989381;28;20141;-60
2023/03/24 08:41:10;;;;;;;5.97;1.63;;;;;;;;;;4991023;28;20142;-63
2023/03/24 08:43:45;;;;;;;5.32;1.75;;;;;;;;;;4990726;28;20085;-65
2023/03/24 08:46:14;;;;;;;6.78;1.90;;;;;;;;;;4987893;28;20060;-64
2023/03/24 08:48:42;;;;;;;3.72;1.80;;;;;;;;;;4993378;28;20055;-64
2023/03/24 08:51:16;;;;;;;8.70;1.70;;;;;;;;;;4992547;28;20482;-64
2023/03/24 08:53:44;;;;;;;5.97;1.75;;;;;;;;;;4989024;28;20142;-64
2023/03/24 08:56:17;;;;;;;3.10;1.50;;;;;;;;;;4989513;28;20148;-60
2023/03/24 08:58:52;;;;;;;4.93;2.00;;;;;;;;;;4994241;28;20518;-60
2023/03/24 09:01:27;;;;;;;5.38;1.60;;;;;;;;;;4989207;28;20572;-60
2023/03/24 09:03:54;;;;;;;4.45;1.83;;;;;;;;;;4994227;28;20198;-60
2023/03/24 09:06:21;;;;;;;4.55;1.80;;;;;;;;;;4992058;28;20050;-62
2023/03/24 09:08:56;;;;;;;8.43;2.08;;;;;;;;;;4997195;28;20050;-61
2023/03/24 09:11:23;;;;;;;7.35;2.22;;;;;;;;;;4990568;28;20536;-60
2023/03/24 09:13:57;;;;;;;9.07;2.30;;;;;;;;;;4986321;28;20054;-60
2023/03/24 09:16:25;;;;;;;;;;;;;;;;;;4989572;28;20132;-60
2023/03/24 09:19:00;;;;;;;4.20;1.85;;;;;;;;;;4989744;28;20007;-61
2023/03/24 09:21:27;;;;;;;6.25;2.20;;;;;;;;;;4990978;28;20326;-60
2023/03/24 09:24:02;;;;;;;8.27;2.53;;;;;;;;;;4993143;28;20054;-60
2023/03/24 09:26:29;;;;;;;6.68;2.72;;;;;;;;;;4992929;28;20057;-61
2023/03/24 09:28:56;;;;;;;7.93;2.35;;;;;;;;;;4987547;28;20146;-61
2023/03/24 09:31:30;;;;;;;5.32;2.40;;;;;;;;;;4987833;28;20605;-61
2023/03/24 09:33:59;;;;;;;13.63;3.10;;;;;;;;;;4986406;28;21209;-61
2023/03/24 09:36:32;;;;;;;8.38;2.60;;;;;;;;;;4991658;28;20060;-61
2023/03/24 09:39:00;;;;;;;6.20;2.33;;;;;;;;;;4989202;28;20119;-60
2023/03/24 09:41:28;;;;;;;7.35;2.13;;;;;;;;;;4990688;28;20061;-61
2023/03/24 09:44:02;;;;;;;6.43;2.00;;;;;;;;;;4986695;28;20506;-61
2023/03/24 09:46:42;;;;;;;10.45;2.45;;;;;;;;;;4990779;28;20050;-60
2023/03/24 09:49:27;;;;;;;6.10;2.40;;;;;;;;;;4987990;28;20063;-61
2023/03/24 09:51:55;;;;;;;;;;;;;;;;;;4991003;28;20050;-61
2023/03/24 09:54:46;;;;;;;5.38;1.85;;;;;;;;;;4992325;28;20021;-60
2023/03/24 09:57:20;;;;;;;4.80;1.95;;;;;;;;;;4985617;28;20039;-61
2023/03/24 10:00:00;;;;;;;6.95;2.30;;;;;;;;;;4992747;28;20058;-60
2023/03/24 10:02:29;;;;;;;5.53;2.35;;;;;;;;;;4987552;28;20050;-60
2023/03/24 10:05:11;;;;;;;5.45;1.80;;;;;;;;;;4988465;28;20166;-61
2023/03/24 10:07:51;;;;;;;8.23;2.25;;;;;;;;;;4987767;28;20061;-61
2023/03/24 10:10:48;;;;;;;4.90;2.33;;;;;;;;;;4986370;28;20096;-60
2023/03/24 10:13:19;;;;;;;5.70;2.25;;;;;;;;;;4982525;28;20419;-61
2023/03/24 10:16:12;;;;;;;7.30;2.20;;;;;;;;;;4986840;28;20046;-61
2023/03/24 10:19:00;;;;;;;7.55;2.78;;;;;;;;;;4987932;28;20157;-61
2023/03/24 10:21:46;;;;;;;6.85;1.63;;;;;;;;;;4986508;28;20338;-61
2023/03/24 10:24:37;;;;;;;6.00;2.40;;;;;;;;;;4988060;28;20054;-61
2023/03/24 10:27:17;;;;;;;3.60;1.70;;;;;;;;;;4987708;28;20080;-61
2023/03/24 10:29:45;;;;;;;4.78;1.83;;;;;;;;;;4987694;28;20062;-61
2023/03/24 10:32:21;;;;;;;4.05;1.63;;;;;;;;;;4986595;28;20418;-61
2023/03/24 10:34:52;;;;;;;2.85;1.40;;;;;;;;;;4988296;28;20529;-61
2023/03/24 10:37:28;;;;;;;4.25;1.50;;;;;;;;;;4988606;28;20054;-61
2023/03/24 10:39:56;;;;;;;5.85;1.42;;;;;;;;;;4989325;28;20133;-60
2023/03/24 10:42:23;;;;;;;;;;;;;;;;;;4993494;28;20124;-61
2023/03/24 10:44:56;;;;;;;2.42;0.98;;;;;;;;;;4987130;28;19936;-61
2023/03/24 10:47:25;;;;;;;2.15;1.60;;;;;;;;;;4986194;28;20054;-60
2023/03/24 10:50:01;;;;;;;1.80;1.00;;;;;;;;;;4987152;28;20418;-61
2023/03/24 10:52:41;;;;;;;4.65;1.90;;;;;;;;;;4987813;28;20133;-61
2023/03/24 10:55:16;;;;;;;2.88;1.38;;;;;;;;;;4986756;28;20042;-61
2023/03/24 10:57:57;;;;;;;0.73;0.68;;;;;;;;;;4985337;28;20069;-60
2023/03/24 11:00:31;;;;;;;3.05;1.15;;;;;;;;;;4970336;28;20137;-61
2023/03/24 11:03:00;;;;;;;1.63;1.00;;;;;;;;;;4963566;28;20067;-61
2023/03/24 11:05:37;;;;;;;3.33;1.08;;;;;;;;;;4968250;28;20062;-61
2023/03/24 11:08:16;;;;;;;1.73;0.88;;;;;;;;;;4966402;28;20152;-60
2023/03/24 11:10:50;;;;;;;1.38;0.70;;;;;;;;;;4968249;28;20065;-61
2023/03/24 11:13:18;;;;;;;1.77;0.88;;;;;;;;;;4960005;28;20065;-60
2023/03/24 11:15:57;;;;;;;0.50;0.47;;;;;;;;;;4971781;28;20078;-61
2023/03/24 11:18:25;;;;;;;2.13;1.35;;;;;;;;;;4973272;28;20055;-63
2023/03/24 11:20:55;;;;;;;1.88;0.80;;;;;;;;;;4971932;28;20050;-61
2023/03/24 11:23:30;;;;;;;0.98;0.60;;;;;;;;;;4970510;28;20046;-61
2023/03/24 11:26:03;;;;;;;2.67;0.75;;;;;;;;;;4974656;28;20085;-61
2023/03/24 11:28:42;;;;;;;1.30;0.65;;;;;;;;;;4967233;28;20064;-61
2023/03/24 11:31:10;;;;;;;1.70;0.60;;;;;;;;;;4964698;28;20061;-61
2023/03/24 11:33:49;;;;;;;0.57;0.40;;;;;;;;;;4965925;28;20054;-61
2023/03/24 11:36:29;;;;;;;0.70;0.50;;;;;;;;;;4962102;28;20047;-61
2023/03/24 11:39:06;;;;;;;0.93;0.40;;;;;;;;;;4966990;28;20061;-61
2023/03/24 11:41:35;;;;;;;3.90;2.03;;;;;;;;;;4962363;28;20081;-61
2023/03/24 11:44:21;;;;;;;4.72;2.58;;;;;;;;;;4956295;28;20528;-60
2023/03/24 11:46:55;;;;;;;9.13;3.95;;;;;;;;;;4961640;28;20536;-61
2023/03/24 11:49:38;;;;;;;5.15;2.80;;;;;;;;;;4961866;28;20669;-60
2023/03/24 11:52:09;;;;;;;10.95;5.00;;;;;;;;;;4966120;28;20126;-62
2023/03/24 11:54:45;;;;;;;12.88;4.82;;;;;;;;;;4964869;28;20205;-61
2023/03/24 11:57:13;;;;;;;6.15;4.25;;;;;;;;;;4959751;28;20062;-61
2023/03/24 12:00:08;;;;;;;11.05;4.20;;;;;;;;;;4988487;28;20054;-61
2023/03/24 12:02:51;;;;;;;11.75;3.97;;;;;;;;;;4986115;28;20138;-60
2023/03/24 12:06:04;;;;;;;10.20;3.53;;;;;;;;;;4988522;28;20078;-61
2023/03/24 12:08:49;;;;;;;14.52;4.43;;;;;;;;;;4937811;28;20055;-61
2023/03/24 12:11:41;;;;;;;9.18;3.75;;;;;;;;;;4939429;28;20419;-60
2023/03/24 12:14:08;;;;;;;10.55;3.70;;;;;;;;;;4975593;28;20058;-61
2023/03/24 12:16:50;;;;;;;14.48;3.60;;;;;;;;;;4984837;28;20073;-61
2023/03/24 12:19:17;;;;;;;6.70;3.05;;;;;;;;;;4985486;28;20054;-61
2023/03/24 12:22:00;;;;;;;6.63;2.85;;;;;;;;;;4990429;28;20062;-61
2023/03/24 12:24:45;;;;;;;10.05;2.88;;;;;;;;;;4985351;28;20054;-60
2023/03/24 12:27:19;;;;;;;10.23;2.88;;;;;;;;;;4988277;28;20042;-61
2023/03/24 12:30:10;;;;;;;6.35;2.95;;;;;;;;;;4990151;28;20570;-61
2023/03/24 12:32:49;;;;;;;10.65;3.00;;;;;;;;;;4988956;28;20081;-60
2023/03/24 12:35:28;;;;;;;15.70;3.05;;;;;;;;;;4990031;28;20105;-59
2023/03/24 12:38:13;;;;;;;8.25;2.58;;;;;;;;;;4983540;28;20104;-59
2023/03/24 12:40:46;;;;;;;8.20;2.97;;;;;;;;;;4989077;28;20069;-59
2023/03/24 12:43:25;;;;;;;10.23;2.60;;;;;;;;;;4989150;28;20394;-59
2023/03/24 12:45:57;;;;;;;8.98;2.80;;;;;;;;;;4989101;28;20046;-58
2023/03/24 12:48:38;;;;;;;13.77;3.15;;;;;;;;;;4987520;28;20058;-57
2023/03/24 12:51:11;;;;;;;12.52;2.63;;;;;;;;;;4988693;28;20054;-59
2023/03/24 12:53:52;;;;;;;11.52;3.20;;;;;;;;;;4988456;28;20046;-59
2023/03/24 12:56:38;;;;;;;12.27;3.55;;;;;;;;;;4988112;28;20054;-59
2023/03/24 12:59:31;;;;;;;10.05;2.85;;;;;;;;;;4991168;28;20085;-60
2023/03/24 13:02:03;;;;;;;11.02;2.80;;;;;;;;;;4985222;28;20533;-58
2023/03/24 13:04:40;;;;;;;11.80;2.40;;;;;;;;;;4988113;28;20062;-60
2023/03/24 13:07:10;;;;;;;9.15;3.00;;;;;;;;;;4988636;28;20217;-57
2023/03/24 13:09:54;;;;;;;9.73;2.60;;;;;;;;;;4995418;28;20050;-60
2023/03/24 13:12:43;;;;;;;13.38;2.58;;;;;;;;;;4988334;28;20069;-59
2023/03/24 13:15:20;;;;;;;7.78;2.08;;;;;;;;;;4990208;28;20088;-58
2023/03/24 13:17:49;;;;;;;6.80;1.90;;;;;;;;;;4990220;28;20082;-58
2023/03/24 13:20:33;;;;;;;7.97;1.38;;;;;;;;;;4986885;28;20050;-59
2023/03/24 13:23:05;;;;;;;2.97;1.15;;;;;;;;;;4988808;28;20528;-56
2023/03/24 13:25:39;;;;;;;;;;;;;;;;;;4992265;28;20081;-59
2023/03/24 13:28:10;;;;;;;3.97;0.80;;;;;;;;;;4992093;28;19922;-59
2023/03/24 13:30:38;;;;;;;4.88;1.27;;;;;;;;;;4986549;28;20089;-60
2023/03/24 13:33:25;;;;;;;5.55;0.82;;;;;;;;;;4992016;28;20133;-58
2023/03/24 13:36:12;;;;;;;0.40;0.30;;;;;;;;;;4986779;28;20089;-60
2023/03/24 13:38:49;;;;;;;0.60;0.45;;;;;;;;;;4989644;28;20449;-59
2023/03/24 13:41:25;;;;;;;1.45;0.70;;;;;;;;;;4989349;28;20058;-57
2023/03/24 13:44:01;;;;;;;0.68;0.28;;;;;;;;;;4991788;28;20058;-57
2023/03/24 13:46:36;;;;;;;0.77;0.40;;;;;;;;;;4992064;28;20053;-58
2023/03/24 13:49:05;;;;;;;0.45;0.28;;;;;;;;;;4988805;28;20058;-57
2023/03/24 13:51:34;;;;;;;0.55;0.38;;;;;;;;;;4988729;28;20057;-59
2023/03/24 13:54:11;;;;;;;0.47;0.30;;;;;;;;;;4987465;28;20062;-59
2023/03/24 13:56:41;;;;;;;1.08;0.50;;;;;;;;;;4991559;28;20336;-58
2023/03/24 13:59:31;;;;;;;0.57;0.47;;;;;;;;;;4988045;28;20065;-59
2023/03/24 14:02:17;;;;;;;1.30;0.52;;;;;;;;;;4992224;28;20112;-57
2023/03/24 14:05:08;;;;;;;2.40;0.73;;;;;;;;;;4987720;28;20063;-60
2023/03/24 14:07:45;;;;;;;2.10;0.70;;;;;;;;;;4985429;28;20086;-60
2023/03/24 14:10:19;;;;;;;2.15;0.52;;;;;;;;;;4985328;28;20062;-59
2023/03/24 14:12:53;;;;;;;1.73;0.38;;;;;;;;;;4989499;28;20136;-58
2023/03/24 14:15:35;;;;;;;1.30;0.60;;;;;;;;;;4986055;28;20145;-59
2023/03/24 14:18:20;;;;;;;1.10;0.30;;;;;;;;;;4985215;28;20397;-59
2023/03/24 14:20:57;;;;;;;2.10;0.60;;;;;;;;;;4989709;28;20050;-59
2023/03/24 14:23:34;;;;;;;1.85;0.93;;;;;;;;;;4988664;28;20137;-58
2023/03/24 14:26:12;;;;;;;1.65;0.50;;;;;;;;;;4990618;28;20056;-57
2023/03/24 14:28:40;;;;;;;2.13;0.57;;;;;;;;;;4986928;28;20057;-58
2023/03/24 14:31:11;;;;;;;4.57;0.98;;;;;;;;;;4989824;28;20085;-58
2023/03/24 14:33:45;;;;;;;;;;;;;;;;;;4987330;28;20054;-54
2023/03/24 14:36:17;;;;;;;2.25;0.50;;;;;;;;;;4991285;28;20011;-59
2023/03/24 14:38:44;;;;;;;0.95;0.50;;;;;;;;;;4989621;28;20184;-57
2023/03/24 14:41:27;;;;;;;1.27;0.70;;;;;;;;;;4985122;28;20560;-59
2023/03/24 14:44:01;;;;;;;4.35;0.70;;;;;;;;;;4987944;28;20100;-57
2023/03/24 14:46:39;;;;;;;2.83;0.50;;;;;;;;;;4989092;28;20042;-58
2023/03/24 14:49:15;;;;;;;3.00;0.70;;;;;;;;;;4990248;28;20510;-57
2023/03/24 14:51:49;;;;;;;2.00;0.45;;;;;;;;;;4987640;28;20152;-59
2023/03/24 14:54:33;;;;;;;3.40;0.82;;;;;;;;;;4985736;28;20066;-58
2023/03/24 14:57:01;;;;;;;2.03;0.80;;;;;;;;;;4988227;28;20133;-58
2023/03/24 14:59:54;;;;;;;3.17;0.60;;;;;;;;;;4983174;28;20046;-57
2023/03/24 15:02:37;;;;;;;4.07;0.50;;;;;;;;;;4989979;28;20573;-58
2023/03/24 15:05:13;;;;;;;1.95;0.30;;;;;;;;;;4989126;28;20050;-57
2023/03/24 15:07:41;;;;;;;1.75;0.32;;;;;;;;;;4986344;28;20137;-58
2023/03/24 15:10:18;;;;;;;2.70;0.63;;;;;;;;;;4988150;28;20537;-57
2023/03/24 15:12:46;;;;;;;2.28;0.70;;;;;;;;;;4986229;28;20056;-57
2023/03/24 15:15:17;;;;;;;0.55;0.45;;;;;;;;;;4983812;28;20069;-57
2023/03/24 15:17:51;;;;;;;2.72;0.60;;;;;;;;;;4985450;28;20502;-59
2023/03/24 15:20:20;;;;;;;0.70;0.30;;;;;;;;;;4981062;28;20054;-58
2023/03/24 15:22:54;;;;;;;3.60;0.43;;;;;;;;;;4979341;28;20527;-57
2023/03/24 15:25:21;;;;;;;;;;;;;;;;;;4989183;28;20058;-57
2023/03/24 15:27:50;;;;;;;0.77;0.55;;;;;;;;;;4984492;28;19925;-58
2023/03/24 15:30:24;;;;;;;1.52;0.60;;;;;;;;;;4980822;28;20132;-62
2023/03/24 15:32:59;;;;;;;1.60;0.90;;;;;;;;;;4984917;28;20077;-60
2023/03/24 15:35:26;;;;;;;5.55;1.05;;;;;;;;;;4984221;28;20061;-59
2023/03/24 15:38:00;;;;;;;5.25;1.40;;;;;;;;;;4987362;28;20050;-59
2023/03/24 15:40:29;;;;;;;9.32;1.60;;;;;;;;;;4991288;28;20585;-57
2023/03/24 15:43:06;;;;;;;4.78;1.23;;;;;;;;;;4987983;28;20050;-54
2023/03/24 15:45:35;;;;;;;7.80;1.52;;;;;;;;;;4985345;28;20050;-56
2023/03/24 15:48:14;;;;;;;16.77;2.70;;;;;;;;;;4987086;28;20741;-63
2023/03/24 15:50:54;;;;;;;13.80;2.35;;;;;;;;;;4980739;28;20062;-63
2023/03/24 15:53:38;;;;;;;18.17;2.45;;;;;;;;;;4987854;28;20080;-63
2023/03/24 15:56:05;;;;;;;;;;;;;;;;;;4985577;28;20113;-63
2023/03/24 15:59:09;;;;;;;17.77;2.90;;;;;;;;;;4982333;28;19936;-63
2023/03/24 16:01:43;;;;;;;25.00;3.97;;;;;;;;;;4987782;28;20578;-60
2023/03/24 16:04:22;;;;;;;22.10;3.58;;;;;;;;;;4962252;28;20214;-62
2023/03/24 16:06:51;;;;;;;27.70;4.55;;;;;;;;;;4981379;28;20717;-67
2023/03/24 16:09:25;;;;;;;30.52;4.55;;;;;;;;;;4981881;28;20073;-67
2023/03/24 16:11:53;;;;;;;26.98;4.18;;;;;;;;;;4984189;28;20057;-66
2023/03/24 16:14:25;;;;;;;34.65;5.00;;;;;;;;;;4987740;28;20061;-67
2023/03/24 16:16:59;;;;;;;45.05;6.72;;;;;;;;;;4982838;28;20395;-67
2023/03/24 16:19:33;;;;;;;35.08;5.32;;;;;;;;;;4989055;28;20054;-67
2023/03/24 16:22:17;;;;;;;42.70;5.50;;;;;;;;;;4984922;28;20058;-59
2023/03/24 16:24:45;;;;;;;35.53;4.90;;;;;;;;;;4965868;28;20506;-57
2023/03/24 16:27:18;;;;;;;34.80;6.05;;;;;;;;;;4988528;28;20162;-58
2023/03/24 16:29:46;;;;;;;40.95;5.68;;;;;;;;;;4986227;28;20055;-54
2023/03/24 16:32:13;;;;;;;;;;;;;;;;;;4991173;28;20146;-54
2023/03/24 16:34:46;;;;;;;32.80;5.30;;;;;;;;;;4994047;28;19932;-56
2023/03/24 16:37:14;;;;;;;47.35;6.35;;;;;;;;;;4988903;28;20144;-56
2023/03/24 16:39:47;;;;;;;52.63;5.60;;;;;;;;;;4985174;28;20174;-59
2023/03/24 16:42:15;;;;;;;40.70;5.43;;;;;;;;;;4970590;28;20061;-57
2023/03/24 16:44:42;;;;;;;49.45;7.05;;;;;;;;;;4989720;28;20058;-58
2023/03/24 16:47:16;;;;;;;34.05;5.80;;;;;;;;;;4987922;28;20054;-58
2023/03/24 16:49:43;;;;;;;46.90;7.13;;;;;;;;;;4984633;28;20149;-62
2023/03/24 16:52:17;;;;;;;42.72;5.80;;;;;;;;;;4990105;28;20141;-60
2023/03/24 16:54:45;;;;;;;55.35;6.00;;;;;;;;;;4984830;28;20061;-60
2023/03/24 16:57:12;;;;;;;51.33;7.00;;;;;;;;;;4988587;28;20520;-60
2023/03/24 16:59:53;;;;;;;52.78;6.70;;;;;;;;;;4987604;28;20149;-60
2023/03/24 17:02:20;;;;;;;45.20;6.57;;;;;;;;;;4988841;28;20156;-60
2023/03/24 17:04:55;;;;;;;51.40;7.72;;;;;;;;;;4987413;28;20061;-60
2023/03/24 17:07:23;;;;;;;41.15;4.97;;;;;;;;;;4988890;28;20065;-53
2023/03/24 17:09:50;;;;;;;54.45;5.93;;;;;;;;;;4988239;28;20138;-57
2023/03/24 17:12:24;;;;;;;47.85;5.93;;;;;;;;;;4987373;28;20133;-54
2023/03/24 17:14:52;;;;;;;72.35;8.95;;;;;;;;;;4990520;28;20054;-57
2023/03/24 17:17:25;;;;;;;48.13;7.05;;;;;;;;;;4987858;28;20054;-60
2023/03/24 17:19:52;;;;;;;57.72;7.63;;;;;;;;;;4988993;28;20054;-58
2023/03/24 17:22:19;;;;;;;49.22;6.80;;;;;;;;;;4989573;28;20072;-52
2023/03/24 17:24:57;;;;;;;51.10;6.50;;;;;;;;;;4989323;28;20149;-53
2023/03/24 17:27:24;;;;;;;54.75;7.85;;;;;;;;;;4987300;28;20047;-56
2023/03/24 17:29:58;;;;;;;59.92;7.22;;;;;;;;;;4989875;28;20441;-55
2023/03/24 17:32:30;;;;;;;52.97;7.35;;;;;;;;;;4988696;28;20101;-51
2023/03/24 17:34:58;;;;;;;39.13;6.22;;;;;;;;;;4989034;28;20061;-55